sensor_id;sensor_type;location;lat;lon;timestamp;temperature;humidity
58638;DHT22;54976;51.510;7.522;2023-10-13T00:01:58;17.50;99.90
58638;DHT22;54976;51.510;7.522;2023-10-13T00:04:59;17.60;99.90
58638;DHT22;54976;51.510;7.522;2023-10-13T00:08:01;17.60;99.90
58638;DHT22;54976;51.510;7.522;2023-10-13T00:11:02;17.60;99.90
58638;DHT22;54976;51.510;7.522;2023-10-13T00:14:05;17.60;99.90
58638;DHT22;54976;51.510;7.522;2023-10-13T00:17:06;17.70;99.90
58638;DHT22;54976;51.510;7.522;2023-10-13T00:20:20;17.70;99.90
58638;DHT22;54976;51.510;7.522;2023-10-13T00:23:41;17.70;99.90
58638;DHT22;54976;51.510;7.522;2023-10-13T00:26:52;17.70;99.90
58638;DHT22;54976;51.510;7.522;2023-10-13T00:29:57;17.60;99.90
58638;DHT22;54976;51.510;7.522;2023-10-13T00:33:17;17.70;99.90
58638;DHT22;54976;51.510;7.522;2023-10-13T00:36:20;17.70;99.90
58638;DHT22;54976;51.510;7.522;2023-10-13T00:39:21;17.70;99.90
58638;DHT22;54976;51.510;7.522;2023-10-13T00:42:23;17.70;99.90
58638;DHT22;54976;51.510;7.522;2023-10-13T00:48:59;17.70;99.90
58638;DHT22;54976;51.510;7.522;2023-10-13T00:52:02;17.70;99.90
58638;DHT22;54976;51.510;7.522;2023-10-13T00:55:03;17.70;99.90
58638;DHT22;54976;51.510;7.522;2023-10-13T00:58:05;17.70;99.90
58638;DHT22;54976;51.510;7.522;2023-10-13T01:01:08;17.60;99.90
58638;DHT22;54976;51.510;7.522;2023-10-13T01:04:30;17.60;99.90
58638;DHT22;54976;51.510;7.522;2023-10-13T01:07:32;17.60;99.90
58638;DHT22;54976;51.510;7.522;2023-10-13T01:10:32;17.60;99.90
58638;DHT22;54976;51.510;7.522;2023-10-13T01:13:37;17.70;99.90
58638;DHT22;54976;51.510;7.522;2023-10-13T01:16:38;17.70;99.90
58638;DHT22;54976;51.510;7.522;2023-10-13T01:19:46;17.70;99.90
58638;DHT22;54976;51.510;7.522;2023-10-13T01:22:49;17.70;99.90
58638;DHT22;54976;51.510;7.522;2023-10-13T01:25:56;17.80;99.90
58638;DHT22;54976;51.510;7.522;2023-10-13T01:28:57;17.80;99.90
58638;DHT22;54976;51.510;7.522;2023-10-13T01:31:58;17.80;99.90
58638;DHT22;54976;51.510;7.522;2023-10-13T01:34:59;17.80;99.90
58638;DHT22;54976;51.510;7.522;2023-10-13T01:38:06;17.80;99.90
58638;DHT22;54976;51.510;7.522;2023-10-13T01:41:07;17.80;99.90
58638;DHT22;54976;51.510;7.522;2023-10-13T01:44:09;17.80;99.90
58638;DHT22;54976;51.510;7.522;2023-10-13T01:47:15;17.80;99.90
58638;DHT22;54976;51.510;7.522;2023-10-13T01:50:17;17.80;99.90
58638;DHT22;54976;51.510;7.522;2023-10-13T01:53:39;17.90;99.90
58638;DHT22;54976;51.510;7.522;2023-10-13T01:56:41;17.90;99.90
58638;DHT22;54976;51.510;7.522;2023-10-13T01:59:47;17.90;99.90
58638;DHT22;54976;51.510;7.522;2023-10-13T02:02:48;18.00;99.90
58638;DHT22;54976;51.510;7.522;2023-10-13T02:05:51;18.00;99.90
58638;DHT22;54976;51.510;7.522;2023-10-13T02:08:53;18.00;99.90
58638;DHT22;54976;51.510;7.522;2023-10-13T02:11:58;17.90;99.90
58638;DHT22;54976;51.510;7.522;2023-10-13T02:14:59;17.90;99.90
58638;DHT22;54976;51.510;7.522;2023-10-13T02:18:01;17.90;99.90
58638;DHT22;54976;51.510;7.522;2023-10-13T02:21:03;17.90;99.90
58638;DHT22;54976;51.510;7.522;2023-10-13T02:24:12;18.00;99.90
58638;DHT22;54976;51.510;7.522;2023-10-13T02:27:13;18.00;99.90
58638;DHT22;54976;51.510;7.522;2023-10-13T02:30:14;17.90;99.90
58638;DHT22;54976;51.510;7.522;2023-10-13T02:33:15;17.90;99.90
58638;DHT22;54976;51.510;7.522;2023-10-13T02:36:21;17.90;99.90
58638;DHT22;54976;51.510;7.522;2023-10-13T02:39:36;17.90;99.90
58638;DHT22;54976;51.510;7.522;2023-10-13T02:42:41;17.90;99.90
58638;DHT22;54976;51.510;7.522;2023-10-13T02:45:42;17.90;99.90
58638;DHT22;54976;51.510;7.522;2023-10-13T02:48:44;17.90;99.90
58638;DHT22;54976;51.510;7.522;2023-10-13T02:51:46;17.90;99.90
58638;DHT22;54976;51.510;7.522;2023-10-13T02:54:47;18.00;99.90
58638;DHT22;54976;51.510;7.522;2023-10-13T02:57:47;18.00;99.90
58638;DHT22;54976;51.510;7.522;2023-10-13T03:00:49;18.00;99.90
58638;DHT22;54976;51.510;7.522;2023-10-13T03:03:50;18.00;99.90
58638;DHT22;54976;51.510;7.522;2023-10-13T03:06:58;18.00;99.90
58638;DHT22;54976;51.510;7.522;2023-10-13T03:10:00;17.90;99.90
58638;DHT22;54976;51.510;7.522;2023-10-13T03:13:09;17.90;99.90
58638;DHT22;54976;51.510;7.522;2023-10-13T03:16:14;17.90;99.90
58638;DHT22;54976;51.510;7.522;2023-10-13T03:19:16;17.90;99.90
58638;DHT22;54976;51.510;7.522;2023-10-13T03:22:19;17.90;99.90
58638;DHT22;54976;51.510;7.522;2023-10-13T03:25:30;17.90;99.90
58638;DHT22;54976;51.510;7.522;2023-10-13T03:28:37;17.90;99.90
58638;DHT22;54976;51.510;7.522;2023-10-13T03:31:38;17.90;99.90
58638;DHT22;54976;51.510;7.522;2023-10-13T03:34:39;17.90;99.90
58638;DHT22;54976;51.510;7.522;2023-10-13T03:37:52;17.90;99.90
58638;DHT22;54976;51.510;7.522;2023-10-13T03:40:53;17.90;99.90
58638;DHT22;54976;51.510;7.522;2023-10-13T03:44:08;17.90;99.90
58638;DHT22;54976;51.510;7.522;2023-10-13T03:47:18;17.90;99.90
58638;DHT22;54976;51.510;7.522;2023-10-13T03:50:19;17.90;99.90
58638;DHT22;54976;51.510;7.522;2023-10-13T03:53:30;17.90;99.90
58638;DHT22;54976;51.510;7.522;2023-10-13T03:56:35;17.90;99.90
58638;DHT22;54976;51.510;7.522;2023-10-13T03:59:38;17.90;99.90
58638;DHT22;54976;51.510;7.522;2023-10-13T04:02:40;17.90;99.90
58638;DHT22;54976;51.510;7.522;2023-10-13T04:05:47;17.80;99.90
58638;DHT22;54976;51.510;7.522;2023-10-13T04:09:01;17.80;99.90
58638;DHT22;54976;51.510;7.522;2023-10-13T04:12:28;17.90;99.90
58638;DHT22;54976;51.510;7.522;2023-10-13T04:15:47;17.80;99.90
58638;DHT22;54976;51.510;7.522;2023-10-13T04:19:15;17.80;99.90
58638;DHT22;54976;51.510;7.522;2023-10-13T04:22:23;17.90;99.90
58638;DHT22;54976;51.510;7.522;2023-10-13T04:25:43;17.90;99.90
58638;DHT22;54976;51.510;7.522;2023-10-13T04:28:44;17.90;99.90
58638;DHT22;54976;51.510;7.522;2023-10-13T04:31:56;17.90;99.90
58638;DHT22;54976;51.510;7.522;2023-10-13T04:35:01;17.90;99.90
58638;DHT22;54976;51.510;7.522;2023-10-13T04:38:13;17.80;99.90
58638;DHT22;54976;51.510;7.522;2023-10-13T04:41:21;17.80;99.90
58638;DHT22;54976;51.510;7.522;2023-10-13T04:44:24;17.80;99.90
58638;DHT22;54976;51.510;7.522;2023-10-13T04:47:43;17.80;99.90
58638;DHT22;54976;51.510;7.522;2023-10-13T04:51:01;17.80;99.90
58638;DHT22;54976;51.510;7.522;2023-10-13T04:54:42;17.80;99.90
58638;DHT22;54976;51.510;7.522;2023-10-13T04:57:54;17.80;99.90
58638;DHT22;54976;51.510;7.522;2023-10-13T05:01:04;17.80;99.90
58638;DHT22;54976;51.510;7.522;2023-10-13T05:04:23;17.80;99.90
58638;DHT22;54976;51.510;7.522;2023-10-13T05:07:56;17.80;99.90
58638;DHT22;54976;51.510;7.522;2023-10-13T05:11:29;17.80;99.90
58638;DHT22;54976;51.510;7.522;2023-10-13T05:14:50;17.70;99.90
58638;DHT22;54976;51.510;7.522;2023-10-13T05:18:09;17.80;99.90
58638;DHT22;54976;51.510;7.522;2023-10-13T05:21:28;17.90;99.90
58638;DHT22;54976;51.510;7.522;2023-10-13T05:24:47;18.00;99.90
58638;DHT22;54976;51.510;7.522;2023-10-13T05:28:07;17.90;99.90
58638;DHT22;54976;51.510;7.522;2023-10-13T05:31:26;17.90;99.90
58638;DHT22;54976;51.510;7.522;2023-10-13T05:34:45;18.00;99.90
58638;DHT22;54976;51.510;7.522;2023-10-13T05:38:05;18.00;99.90
58638;DHT22;54976;51.510;7.522;2023-10-13T05:41:24;17.90;99.90
58638;DHT22;54976;51.510;7.522;2023-10-13T05:44:43;18.00;99.90
58638;DHT22;54976;51.510;7.522;2023-10-13T05:47:56;18.00;99.90
58638;DHT22;54976;51.510;7.522;2023-10-13T05:51:12;18.00;99.90
58638;DHT22;54976;51.510;7.522;2023-10-13T05:54:31;18.00;99.90
58638;DHT22;54976;51.510;7.522;2023-10-13T05:57:50;18.00;99.90
58638;DHT22;54976;51.510;7.522;2023-10-13T06:01:12;18.00;99.90
58638;DHT22;54976;51.510;7.522;2023-10-13T06:04:31;18.00;99.90
58638;DHT22;54976;51.510;7.522;2023-10-13T06:07:51;18.00;99.90
58638;DHT22;54976;51.510;7.522;2023-10-13T06:11:11;18.00;99.90
58638;DHT22;54976;51.510;7.522;2023-10-13T06:14:30;18.00;99.90
58638;DHT22;54976;51.510;7.522;2023-10-13T06:17:54;18.10;99.90
58638;DHT22;54976;51.510;7.522;2023-10-13T06:21:13;18.10;99.90
58638;DHT22;54976;51.510;7.522;2023-10-13T06:24:32;18.10;99.90
58638;DHT22;54976;51.510;7.522;2023-10-13T06:27:52;18.10;99.90
58638;DHT22;54976;51.510;7.522;2023-10-13T06:31:13;18.10;99.90
58638;DHT22;54976;51.510;7.522;2023-10-13T06:34:21;18.20;99.90
58638;DHT22;54976;51.510;7.522;2023-10-13T06:37:29;18.20;99.90
58638;DHT22;54976;51.510;7.522;2023-10-13T06:40:33;18.20;99.90
58638;DHT22;54976;51.510;7.522;2023-10-13T06:43:37;18.20;99.90
58638;DHT22;54976;51.510;7.522;2023-10-13T06:46:40;18.20;99.90
58638;DHT22;54976;51.510;7.522;2023-10-13T06:49:41;18.20;99.90
58638;DHT22;54976;51.510;7.522;2023-10-13T06:52:44;18.20;99.90
58638;DHT22;54976;51.510;7.522;2023-10-13T06:55:45;18.20;99.90
58638;DHT22;54976;51.510;7.522;2023-10-13T06:58:48;18.20;99.90
58638;DHT22;54976;51.510;7.522;2023-10-13T07:01:49;18.30;99.90
58638;DHT22;54976;51.510;7.522;2023-10-13T07:04:52;18.40;99.90
58638;DHT22;54976;51.510;7.522;2023-10-13T07:08:08;18.40;99.90
58638;DHT22;54976;51.510;7.522;2023-10-13T07:11:09;18.50;99.90
58638;DHT22;54976;51.510;7.522;2023-10-13T07:14:14;18.50;99.90
58638;DHT22;54976;51.510;7.522;2023-10-13T07:17:17;18.50;99.90
58638;DHT22;54976;51.510;7.522;2023-10-13T07:20:23;18.60;99.90
58638;DHT22;54976;51.510;7.522;2023-10-13T07:23:33;18.60;99.90
58638;DHT22;54976;51.510;7.522;2023-10-13T07:26:36;18.70;99.90
58638;DHT22;54976;51.510;7.522;2023-10-13T07:29:45;18.80;99.90
58638;DHT22;54976;51.510;7.522;2023-10-13T07:32:46;18.90;99.90
58638;DHT22;54976;51.510;7.522;2023-10-13T07:35:47;18.90;99.90
58638;DHT22;54976;51.510;7.522;2023-10-13T07:38:54;19.00;99.90
58638;DHT22;54976;51.510;7.522;2023-10-13T07:42:13;19.10;99.90
58638;DHT22;54976;51.510;7.522;2023-10-13T07:45:20;19.20;99.90
58638;DHT22;54976;51.510;7.522;2023-10-13T07:48:25;19.30;99.90
58638;DHT22;54976;51.510;7.522;2023-10-13T07:51:26;19.40;99.90
58638;DHT22;54976;51.510;7.522;2023-10-13T07:54:33;19.40;99.90
58638;DHT22;54976;51.510;7.522;2023-10-13T07:57:33;19.50;99.90
58638;DHT22;54976;51.510;7.522;2023-10-13T08:00:34;19.50;99.90
58638;DHT22;54976;51.510;7.522;2023-10-13T08:03:38;19.50;99.90
58638;DHT22;54976;51.510;7.522;2023-10-13T08:06:47;19.50;99.90
58638;DHT22;54976;51.510;7.522;2023-10-13T08:09:49;19.60;99.90
58638;DHT22;54976;51.510;7.522;2023-10-13T08:12:51;19.60;99.90
58638;DHT22;54976;51.510;7.522;2023-10-13T08:15:55;19.60;99.90
58638;DHT22;54976;51.510;7.522;2023-10-13T08:18:55;19.60;99.90
58638;DHT22;54976;51.510;7.522;2023-10-13T08:21:58;19.50;99.90
58638;DHT22;54976;51.510;7.522;2023-10-13T08:25:21;19.40;99.90
58638;DHT22;54976;51.510;7.522;2023-10-13T08:28:33;19.30;99.90
58638;DHT22;54976;51.510;7.522;2023-10-13T08:31:37;19.20;99.90
58638;DHT22;54976;51.510;7.522;2023-10-13T08:34:41;19.30;99.90
58638;DHT22;54976;51.510;7.522;2023-10-13T08:37:45;19.40;99.90
58638;DHT22;54976;51.510;7.522;2023-10-13T08:41:00;19.50;99.90
58638;DHT22;54976;51.510;7.522;2023-10-13T08:44:16;19.70;99.90
58638;DHT22;54976;51.510;7.522;2023-10-13T08:47:32;19.80;99.90
58638;DHT22;54976;51.510;7.522;2023-10-13T08:50:49;19.90;99.90
58638;DHT22;54976;51.510;7.522;2023-10-13T08:53:50;19.90;99.90
58638;DHT22;54976;51.510;7.522;2023-10-13T08:56:59;19.90;99.90
58638;DHT22;54976;51.510;7.522;2023-10-13T09:00:09;20.00;99.90
58638;DHT22;54976;51.510;7.522;2023-10-13T09:03:40;20.00;99.90
58638;DHT22;54976;51.510;7.522;2023-10-13T09:06:44;20.10;99.90
58638;DHT22;54976;51.510;7.522;2023-10-13T09:09:51;20.20;99.90
58638;DHT22;54976;51.510;7.522;2023-10-13T09:12:54;20.50;99.90
58638;DHT22;54976;51.510;7.522;2023-10-13T09:16:12;20.60;99.90
58638;DHT22;54976;51.510;7.522;2023-10-13T09:19:52;20.60;99.90
58638;DHT22;54976;51.510;7.522;2023-10-13T09:22:56;20.60;99.90
58638;DHT22;54976;51.510;7.522;2023-10-13T09:26:06;20.60;99.90
58638;DHT22;54976;51.510;7.522;2023-10-13T09:29:19;20.70;99.90
58638;DHT22;54976;51.510;7.522;2023-10-13T09:32:20;20.80;99.90
58638;DHT22;54976;51.510;7.522;2023-10-13T09:35:21;20.90;99.90
58638;DHT22;54976;51.510;7.522;2023-10-13T09:38:23;21.20;99.90
58638;DHT22;54976;51.510;7.522;2023-10-13T09:41:24;21.20;99.90
58638;DHT22;54976;51.510;7.522;2023-10-13T09:44:28;21.30;99.90
58638;DHT22;54976;51.510;7.522;2023-10-13T09:47:31;21.40;99.90
58638;DHT22;54976;51.510;7.522;2023-10-13T09:50:38;21.40;99.40
58638;DHT22;54976;51.510;7.522;2023-10-13T09:53:51;21.70;99.90
58638;DHT22;54976;51.510;7.522;2023-10-13T09:56:57;21.90;99.00
58638;DHT22;54976;51.510;7.522;2023-10-13T10:00:16;21.80;99.60
58638;DHT22;54976;51.510;7.522;2023-10-13T10:03:48;21.70;96.30
58638;DHT22;54976;51.510;7.522;2023-10-13T10:07:08;21.70;96.40
58638;DHT22;54976;51.510;7.522;2023-10-13T10:10:09;21.70;96.10
58638;DHT22;54976;51.510;7.522;2023-10-13T10:17:07;21.70;95.80
58638;DHT22;54976;51.510;7.522;2023-10-13T10:20:10;21.70;97.60
58638;DHT22;54976;51.510;7.522;2023-10-13T10:23:27;21.70;96.30
58638;DHT22;54976;51.510;7.522;2023-10-13T10:26:36;21.80;95.20
58638;DHT22;54976;51.510;7.522;2023-10-13T10:29:37;22.00;93.40
58638;DHT22;54976;51.510;7.522;2023-10-13T10:32:38;22.00;94.80
58638;DHT22;54976;51.510;7.522;2023-10-13T10:35:43;22.00;95.10
58638;DHT22;54976;51.510;7.522;2023-10-13T10:38:57;22.10;95.30
58638;DHT22;54976;51.510;7.522;2023-10-13T10:42:11;22.40;94.50
58638;DHT22;54976;51.510;7.522;2023-10-13T10:45:29;22.60;92.90
58638;DHT22;54976;51.510;7.522;2023-10-13T10:48:33;22.70;93.70
58638;DHT22;54976;51.510;7.522;2023-10-13T10:51:44;22.70;94.10
58638;DHT22;54976;51.510;7.522;2023-10-13T10:54:45;22.90;91.10
58638;DHT22;54976;51.510;7.522;2023-10-13T10:58:01;22.90;92.00
58638;DHT22;54976;51.510;7.522;2023-10-13T11:01:06;23.10;92.60
58638;DHT22;54976;51.510;7.522;2023-10-13T11:04:11;23.10;92.80
58638;DHT22;54976;51.510;7.522;2023-10-13T11:07:21;23.30;91.10
58638;DHT22;54976;51.510;7.522;2023-10-13T11:10:22;23.40;91.30
58638;DHT22;54976;51.510;7.522;2023-10-13T11:13:42;23.40;90.90
58638;DHT22;54976;51.510;7.522;2023-10-13T11:16:52;23.40;92.00
58638;DHT22;54976;51.510;7.522;2023-10-13T11:20:11;23.30;90.80
58638;DHT22;54976;51.510;7.522;2023-10-13T11:23:16;23.30;92.40
58638;DHT22;54976;51.510;7.522;2023-10-13T11:26:17;23.20;91.30
58638;DHT22;54976;51.510;7.522;2023-10-13T11:29:19;23.30;91.20
58638;DHT22;54976;51.510;7.522;2023-10-13T11:32:20;23.40;91.50
58638;DHT22;54976;51.510;7.522;2023-10-13T11:35:21;23.50;91.40
58638;DHT22;54976;51.510;7.522;2023-10-13T11:38:33;23.60;90.70
58638;DHT22;54976;51.510;7.522;2023-10-13T11:41:46;23.70;90.20
58638;DHT22;54976;51.510;7.522;2023-10-13T11:44:54;23.80;89.70
58638;DHT22;54976;51.510;7.522;2023-10-13T11:48:14;23.90;91.10
58638;DHT22;54976;51.510;7.522;2023-10-13T11:51:16;23.80;88.80
58638;DHT22;54976;51.510;7.522;2023-10-13T11:54:26;23.80;90.40
58638;DHT22;54976;51.510;7.522;2023-10-13T11:57:27;23.70;91.60
58638;DHT22;54976;51.510;7.522;2023-10-13T12:00:28;23.60;90.80
58638;DHT22;54976;51.510;7.522;2023-10-13T12:03:49;23.50;91.50
58638;DHT22;54976;51.510;7.522;2023-10-13T12:07:09;23.50;90.20
58638;DHT22;54976;51.510;7.522;2023-10-13T12:10:15;23.40;90.10
58638;DHT22;54976;51.510;7.522;2023-10-13T12:13:17;23.50;90.50
58638;DHT22;54976;51.510;7.522;2023-10-13T12:16:17;23.40;90.30
58638;DHT22;54976;51.510;7.522;2023-10-13T12:19:20;23.40;91.20
58638;DHT22;54976;51.510;7.522;2023-10-13T12:22:24;23.40;91.10
58638;DHT22;54976;51.510;7.522;2023-10-13T12:25:29;23.40;90.80
58638;DHT22;54976;51.510;7.522;2023-10-13T12:28:32;23.40;91.00
58638;DHT22;54976;51.510;7.522;2023-10-13T12:31:38;23.40;91.10
58638;DHT22;54976;51.510;7.522;2023-10-13T12:34:40;23.40;90.40
58638;DHT22;54976;51.510;7.522;2023-10-13T12:38:07;23.50;90.20
58638;DHT22;54976;51.510;7.522;2023-10-13T12:41:27;23.60;90.50
58638;DHT22;54976;51.510;7.522;2023-10-13T12:44:46;23.60;90.00
58638;DHT22;54976;51.510;7.522;2023-10-13T12:48:06;23.70;90.70
58638;DHT22;54976;51.510;7.522;2023-10-13T12:51:25;23.60;90.50
58638;DHT22;54976;51.510;7.522;2023-10-13T12:54:28;23.60;90.20
58638;DHT22;54976;51.510;7.522;2023-10-13T12:57:35;23.70;90.40
58638;DHT22;54976;51.510;7.522;2023-10-13T13:00:43;23.60;90.30
58638;DHT22;54976;51.510;7.522;2023-10-13T13:03:50;23.70;88.40
58638;DHT22;54976;51.510;7.522;2023-10-13T13:06:50;23.70;87.80
58638;DHT22;54976;51.510;7.522;2023-10-13T13:09:51;23.90;89.10
58638;DHT22;54976;51.510;7.522;2023-10-13T13:12:56;24.00;88.80
58638;DHT22;54976;51.510;7.522;2023-10-13T13:15:57;24.00;89.70
58638;DHT22;54976;51.510;7.522;2023-10-13T13:18:58;24.00;88.30
58638;DHT22;54976;51.510;7.522;2023-10-13T13:21:58;24.10;87.30
58638;DHT22;54976;51.510;7.522;2023-10-13T13:24:59;24.20;85.20
58638;DHT22;54976;51.510;7.522;2023-10-13T13:28:01;24.30;84.50
58638;DHT22;54976;51.510;7.522;2023-10-13T13:31:05;24.30;84.70
58638;DHT22;54976;51.510;7.522;2023-10-13T13:34:08;24.10;83.30
58638;DHT22;54976;51.510;7.522;2023-10-13T13:37:13;24.00;85.50
58638;DHT22;54976;51.510;7.522;2023-10-13T13:40:13;24.00;84.00
58638;DHT22;54976;51.510;7.522;2023-10-13T13:43:15;24.00;83.30
58638;DHT22;54976;51.510;7.522;2023-10-13T13:46:31;24.00;83.10
58638;DHT22;54976;51.510;7.522;2023-10-13T13:49:41;24.10;83.80
58638;DHT22;54976;51.510;7.522;2023-10-13T13:52:47;24.00;81.90
58638;DHT22;54976;51.510;7.522;2023-10-13T13:55:47;24.10;82.20
58638;DHT22;54976;51.510;7.522;2023-10-13T13:58:52;23.90;83.10
58638;DHT22;54976;51.510;7.522;2023-10-13T14:01:53;23.80;81.10
58638;DHT22;54976;51.510;7.522;2023-10-13T14:04:59;23.80;81.20
58638;DHT22;54976;51.510;7.522;2023-10-13T14:08:02;23.80;80.30
58638;DHT22;54976;51.510;7.522;2023-10-13T14:11:12;23.70;81.90
58638;DHT22;54976;51.510;7.522;2023-10-13T14:14:14;23.70;79.90
58638;DHT22;54976;51.510;7.522;2023-10-13T14:17:27;23.70;78.80
58638;DHT22;54976;51.510;7.522;2023-10-13T14:20:30;23.70;79.30
58638;DHT22;54976;51.510;7.522;2023-10-13T14:23:31;23.70;79.20
58638;DHT22;54976;51.510;7.522;2023-10-13T14:26:34;23.70;79.90
58638;DHT22;54976;51.510;7.522;2023-10-13T14:29:36;23.80;78.40
58638;DHT22;54976;51.510;7.522;2023-10-13T14:32:45;23.80;79.00
58638;DHT22;54976;51.510;7.522;2023-10-13T14:35:46;23.70;78.00
58638;DHT22;54976;51.510;7.522;2023-10-13T14:38:47;23.70;76.80
58638;DHT22;54976;51.510;7.522;2023-10-13T14:41:51;23.60;77.40
58638;DHT22;54976;51.510;7.522;2023-10-13T14:44:52;23.60;77.00
58638;DHT22;54976;51.510;7.522;2023-10-13T14:47:56;23.60;77.00
58638;DHT22;54976;51.510;7.522;2023-10-13T14:50:57;23.60;76.60
58638;DHT22;54976;51.510;7.522;2023-10-13T14:53:58;23.50;78.10
58638;DHT22;54976;51.510;7.522;2023-10-13T14:57:01;23.50;76.80
58638;DHT22;54976;51.510;7.522;2023-10-13T15:00:02;23.40;76.80
58638;DHT22;54976;51.510;7.522;2023-10-13T15:03:03;23.40;75.90
58638;DHT22;54976;51.510;7.522;2023-10-13T15:06:06;23.40;75.90
58638;DHT22;54976;51.510;7.522;2023-10-13T15:09:07;23.50;74.90
58638;DHT22;54976;51.510;7.522;2023-10-13T15:12:11;23.40;74.90
58638;DHT22;54976;51.510;7.522;2023-10-13T15:15:12;23.40;74.00
58638;DHT22;54976;51.510;7.522;2023-10-13T15:18:22;23.30;75.40
58638;DHT22;54976;51.510;7.522;2023-10-13T15:21:24;23.30;73.70
58638;DHT22;54976;51.510;7.522;2023-10-13T15:24:30;23.20;74.60
58638;DHT22;54976;51.510;7.522;2023-10-13T15:27:31;23.20;74.10
58638;DHT22;54976;51.510;7.522;2023-10-13T15:30:35;23.20;74.30
58638;DHT22;54976;51.510;7.522;2023-10-13T15:33:50;23.10;75.40
58638;DHT22;54976;51.510;7.522;2023-10-13T15:36:53;23.10;74.70
58638;DHT22;54976;51.510;7.522;2023-10-13T15:39:55;23.10;74.60
58638;DHT22;54976;51.510;7.522;2023-10-13T15:42:58;23.10;74.60
58638;DHT22;54976;51.510;7.522;2023-10-13T15:45:59;23.10;75.70
58638;DHT22;54976;51.510;7.522;2023-10-13T15:49:00;23.00;76.70
58638;DHT22;54976;51.510;7.522;2023-10-13T15:52:01;22.90;76.00
58638;DHT22;54976;51.510;7.522;2023-10-13T15:55:02;22.90;75.30
58638;DHT22;54976;51.510;7.522;2023-10-13T15:58:05;22.90;74.70
58638;DHT22;54976;51.510;7.522;2023-10-13T16:01:09;22.90;76.40
58638;DHT22;54976;51.510;7.522;2023-10-13T16:04:09;22.80;77.60
58638;DHT22;54976;51.510;7.522;2023-10-13T16:07:19;22.80;76.50
58638;DHT22;54976;51.510;7.522;2023-10-13T16:10:22;22.70;76.10
58638;DHT22;54976;51.510;7.522;2023-10-13T16:13:22;22.70;75.70
58638;DHT22;54976;51.510;7.522;2023-10-13T16:16:23;22.80;75.60
58638;DHT22;54976;51.510;7.522;2023-10-13T16:19:24;22.70;76.40
58638;DHT22;54976;51.510;7.522;2023-10-13T16:22:25;22.60;75.80
58638;DHT22;54976;51.510;7.522;2023-10-13T16:25:26;22.70;76.80
58638;DHT22;54976;51.510;7.522;2023-10-13T16:28:27;22.60;76.90
58638;DHT22;54976;51.510;7.522;2023-10-13T16:31:28;22.60;76.30
58638;DHT22;54976;51.510;7.522;2023-10-13T16:34:28;22.50;77.00
58638;DHT22;54976;51.510;7.522;2023-10-13T16:37:29;22.50;77.00
58638;DHT22;54976;51.510;7.522;2023-10-13T16:40:31;22.40;77.40
58638;DHT22;54976;51.510;7.522;2023-10-13T16:43:32;22.40;77.20
58638;DHT22;54976;51.510;7.522;2023-10-13T16:46:33;22.30;78.00
58638;DHT22;54976;51.510;7.522;2023-10-13T16:49:36;22.30;78.70
58638;DHT22;54976;51.510;7.522;2023-10-13T16:52:37;22.20;78.40
58638;DHT22;54976;51.510;7.522;2023-10-13T16:55:41;22.20;79.00
58638;DHT22;54976;51.510;7.522;2023-10-13T16:58:45;22.10;80.30
58638;DHT22;54976;51.510;7.522;2023-10-13T17:01:45;22.10;79.70
58638;DHT22;54976;51.510;7.522;2023-10-13T17:04:47;22.00;80.60
58638;DHT22;54976;51.510;7.522;2023-10-13T17:07:48;22.00;79.30
58638;DHT22;54976;51.510;7.522;2023-10-13T17:10:49;21.90;80.60
58638;DHT22;54976;51.510;7.522;2023-10-13T17:13:50;21.80;81.80
58638;DHT22;54976;51.510;7.522;2023-10-13T17:16:51;21.70;82.60
58638;DHT22;54976;51.510;7.522;2023-10-13T17:19:52;21.70;81.20
58638;DHT22;54976;51.510;7.522;2023-10-13T17:22:54;21.60;81.90
58638;DHT22;54976;51.510;7.522;2023-10-13T17:25:56;21.60;82.50
58638;DHT22;54976;51.510;7.522;2023-10-13T17:28:56;21.60;81.30
58638;DHT22;54976;51.510;7.522;2023-10-13T17:32:03;21.50;82.50
58638;DHT22;54976;51.510;7.522;2023-10-13T17:35:05;21.50;82.60
58638;DHT22;54976;51.510;7.522;2023-10-13T17:38:12;21.50;84.90
58638;DHT22;54976;51.510;7.522;2023-10-13T17:41:13;21.30;86.00
58638;DHT22;54976;51.510;7.522;2023-10-13T17:44:14;21.20;87.90
58638;DHT22;54976;51.510;7.522;2023-10-13T17:47:14;21.00;90.20
58638;DHT22;54976;51.510;7.522;2023-10-13T17:50:15;20.90;90.30
58638;DHT22;54976;51.510;7.522;2023-10-13T17:53:17;20.70;90.80
58638;DHT22;54976;51.510;7.522;2023-10-13T17:56:17;20.70;90.10
58638;DHT22;54976;51.510;7.522;2023-10-13T17:59:19;20.70;90.40
58638;DHT22;54976;51.510;7.522;2023-10-13T18:02:20;20.70;90.60
58638;DHT22;54976;51.510;7.522;2023-10-13T18:05:21;20.70;90.50
58638;DHT22;54976;51.510;7.522;2023-10-13T18:08:21;20.70;90.10
58638;DHT22;54976;51.510;7.522;2023-10-13T18:11:23;20.70;91.10
58638;DHT22;54976;51.510;7.522;2023-10-13T18:14:28;20.60;91.20
58638;DHT22;54976;51.510;7.522;2023-10-13T18:17:29;20.50;91.80
58638;DHT22;54976;51.510;7.522;2023-10-13T18:20:32;20.50;92.00
58638;DHT22;54976;51.510;7.522;2023-10-13T18:23:33;20.40;91.70
58638;DHT22;54976;51.510;7.522;2023-10-13T18:26:34;20.40;91.50
58638;DHT22;54976;51.510;7.522;2023-10-13T18:29:35;20.50;92.00
58638;DHT22;54976;51.510;7.522;2023-10-13T18:32:36;20.50;92.40
58638;DHT22;54976;51.510;7.522;2023-10-13T18:35:37;20.40;92.50
58638;DHT22;54976;51.510;7.522;2023-10-13T18:38:38;20.30;93.10
58638;DHT22;54976;51.510;7.522;2023-10-13T18:41:39;20.20;92.80
58638;DHT22;54976;51.510;7.522;2023-10-13T18:44:40;20.30;92.30
58638;DHT22;54976;51.510;7.522;2023-10-13T18:47:41;20.30;92.80
58638;DHT22;54976;51.510;7.522;2023-10-13T18:50:45;20.30;93.10
58638;DHT22;54976;51.510;7.522;2023-10-13T18:53:46;20.20;93.30
58638;DHT22;54976;51.510;7.522;2023-10-13T18:56:47;20.20;93.30
58638;DHT22;54976;51.510;7.522;2023-10-13T18:59:51;20.20;93.20
58638;DHT22;54976;51.510;7.522;2023-10-13T19:02:51;20.10;93.50
58638;DHT22;54976;51.510;7.522;2023-10-13T19:05:56;20.20;93.70
58638;DHT22;54976;51.510;7.522;2023-10-13T19:08:57;20.10;93.30
58638;DHT22;54976;51.510;7.522;2023-10-13T19:11:58;20.20;93.30
58638;DHT22;54976;51.510;7.522;2023-10-13T19:14:59;20.10;93.40
58638;DHT22;54976;51.510;7.522;2023-10-13T19:17:59;20.10;94.00
58638;DHT22;54976;51.510;7.522;2023-10-13T19:21:03;20.10;93.20
58638;DHT22;54976;51.510;7.522;2023-10-13T19:24:05;20.10;93.80
58638;DHT22;54976;51.510;7.522;2023-10-13T19:27:06;20.10;93.40
58638;DHT22;54976;51.510;7.522;2023-10-13T19:30:07;20.00;93.90
58638;DHT22;54976;51.510;7.522;2023-10-13T19:33:08;20.00;94.50
58638;DHT22;54976;51.510;7.522;2023-10-13T19:36:10;19.90;94.40
58638;DHT22;54976;51.510;7.522;2023-10-13T19:39:13;19.90;94.30
58638;DHT22;54976;51.510;7.522;2023-10-13T19:42:19;19.80;95.70
58638;DHT22;54976;51.510;7.522;2023-10-13T19:45:21;19.70;95.50